sensor_id;sensor_type;location;lat;lon;timestamp;pressure;altitude;pressure_sealevel;temperature;humidity
38880;BME280;25887;30.194;-97.880;2023-02-01T00:01:19;99439.00;;;2.34;60.26
38880;BME280;25887;30.194;-97.880;2023-02-01T00:03:45;99450.00;;;2.34;60.25
38880;BME280;25887;30.194;-97.880;2023-02-01T00:06:11;99454.44;;;2.38;60.16
38880;BME280;25887;30.194;-97.880;2023-02-01T00:08:37;99464.75;;;2.41;60.07
38880;BME280;25887;30.194;-97.880;2023-02-01T00:11:07;99461.47;;;2.44;60.21
38880;BME280;25887;30.194;-97.880;2023-02-01T00:13:50;99465.00;;;2.47;60.17
38880;BME280;25887;30.194;-97.880;2023-02-01T00:16:16;99457.47;;;2.49;59.78
38880;BME280;25887;30.194;-97.880;2023-02-01T00:18:43;99455.84;;;2.49;60.37
38880;BME280;25887;30.194;-97.880;2023-02-01T00:21:13;99438.16;;;2.51;60.26
38880;BME280;25887;30.194;-97.880;2023-02-01T00:23:39;99430.69;;;2.54;60.08
38880;BME280;25887;30.194;-97.880;2023-02-01T00:29:16;99442.56;;;2.55;60.17
38880;BME280;25887;30.194;-97.880;2023-02-01T00:31:43;99445.91;;;2.54;60.06
38880;BME280;25887;30.194;-97.880;2023-02-01T00:34:10;99458.50;;;2.53;59.72
38880;BME280;25887;30.194;-97.880;2023-02-01T00:36:37;99460.19;;;2.52;60.10
38880;BME280;25887;30.194;-97.880;2023-02-01T00:39:03;99467.78;;;2.52;60.24
38880;BME280;25887;30.194;-97.880;2023-02-01T00:41:28;99464.44;;;2.53;60.09
38880;BME280;25887;30.194;-97.880;2023-02-01T00:43:54;99464.53;;;2.55;59.99
38880;BME280;25887;30.194;-97.880;2023-02-01T00:46:20;99456.97;;;2.56;60.02
38880;BME280;25887;30.194;-97.880;2023-02-01T00:48:47;99461.28;;;2.57;60.08
38880;BME280;25887;30.194;-97.880;2023-02-01T00:51:14;99455.31;;;2.57;59.78
38880;BME280;25887;30.194;-97.880;2023-02-01T00:53:40;99460.25;;;2.54;60.15
38880;BME280;25887;30.194;-97.880;2023-02-01T00:56:10;99455.31;;;2.57;60.00
38880;BME280;25887;30.194;-97.880;2023-02-01T00:58:37;99460.31;;;2.55;60.16
38880;BME280;25887;30.194;-97.880;2023-02-01T01:01:07;99470.53;;;2.57;60.11
38880;BME280;25887;30.194;-97.880;2023-02-01T01:03:37;99471.50;;;2.59;59.95
38880;BME280;25887;30.194;-97.880;2023-02-01T01:06:13;99475.78;;;2.60;59.81
38880;BME280;25887;30.194;-97.880;2023-02-01T01:08:40;99484.13;;;2.57;60.00
38880;BME280;25887;30.194;-97.880;2023-02-01T01:11:16;99482.44;;;2.58;59.85
38880;BME280;25887;30.194;-97.880;2023-02-01T01:13:42;99477.38;;;2.58;59.90
38880;BME280;25887;30.194;-97.880;2023-02-01T01:16:09;99486.66;;;2.57;59.92
38880;BME280;25887;30.194;-97.880;2023-02-01T01:18:54;99489.88;;;2.55;60.15
38880;BME280;25887;30.194;-97.880;2023-02-01T01:21:20;99498.22;;;2.52;60.26
38880;BME280;25887;30.194;-97.880;2023-02-01T01:24:15;99503.06;;;2.47;59.93
38880;BME280;25887;30.194;-97.880;2023-02-01T01:26:41;99506.47;;;2.48;59.98
38880;BME280;25887;30.194;-97.880;2023-02-01T01:29:08;99504.72;;;2.47;59.98
38880;BME280;25887;30.194;-97.880;2023-02-01T01:31:34;99497.03;;;2.45;59.71
38880;BME280;25887;30.194;-97.880;2023-02-01T01:34:00;99499.66;;;2.47;59.74
38880;BME280;25887;30.194;-97.880;2023-02-01T01:36:26;99497.13;;;2.47;59.84
38880;BME280;25887;30.194;-97.880;2023-02-01T01:38:52;99495.44;;;2.47;59.94
38880;BME280;25887;30.194;-97.880;2023-02-01T01:41:30;99504.72;;;2.47;59.88
38880;BME280;25887;30.194;-97.880;2023-02-01T01:44:01;99499.66;;;2.47;59.57
38880;BME280;25887;30.194;-97.880;2023-02-01T01:46:28;99495.31;;;2.44;59.75
38880;BME280;25887;30.194;-97.880;2023-02-01T01:51:23;99514.50;;;2.39;59.74
38880;BME280;25887;30.194;-97.880;2023-02-01T01:53:56;99528.03;;;2.40;59.76
38880;BME280;25887;30.194;-97.880;2023-02-01T01:56:23;99526.22;;;2.37;60.00
38880;BME280;25887;30.194;-97.880;2023-02-01T01:58:51;99535.44;;;2.35;59.07
38880;BME280;25887;30.194;-97.880;2023-02-01T02:01:18;99544.69;;;2.35;59.68
38880;BME280;25887;30.194;-97.880;2023-02-01T02:03:44;99542.97;;;2.34;59.58
38880;BME280;25887;30.194;-97.880;2023-02-01T02:06:12;99540.44;;;2.34;59.57
38880;BME280;25887;30.194;-97.880;2023-02-01T02:08:42;99548.81;;;2.33;59.48
38880;BME280;25887;30.194;-97.880;2023-02-01T02:11:11;99543.72;;;2.33;59.37
38880;BME280;25887;30.194;-97.880;2023-02-01T02:13:38;99544.53;;;2.32;59.66
38880;BME280;25887;30.194;-97.880;2023-02-01T02:16:13;99539.31;;;2.29;59.86
38880;BME280;25887;30.194;-97.880;2023-02-01T02:21:43;99531.47;;;2.24;59.90
38880;BME280;25887;30.194;-97.880;2023-02-01T02:27:02;99543.34;;;2.25;59.68
38880;BME280;25887;30.194;-97.880;2023-02-01T02:32:19;99541.78;;;2.27;59.71
38880;BME280;25887;30.194;-97.880;2023-02-01T02:34:55;99536.59;;;2.26;59.80
38880;BME280;25887;30.194;-97.880;2023-02-01T02:37:36;99547.53;;;2.24;59.61
38880;BME280;25887;30.194;-97.880;2023-02-01T02:42:38;99532.25;;;2.23;59.31
38880;BME280;25887;30.194;-97.880;2023-02-01T02:48:14;99555.78;;;2.20;59.98
38880;BME280;25887;30.194;-97.880;2023-02-01T02:51:05;99561.81;;;2.22;59.87
38880;BME280;25887;30.194;-97.880;2023-02-01T02:53:58;99556.66;;;2.21;59.57
38880;BME280;25887;30.194;-97.880;2023-02-01T02:56:43;99543.25;;;2.23;59.64
38880;BME280;25887;30.194;-97.880;2023-02-01T02:59:28;99560.06;;;2.21;59.70
38880;BME280;25887;30.194;-97.880;2023-02-01T03:02:12;99571.81;;;2.19;59.79
38880;BME280;25887;30.194;-97.880;2023-02-01T03:04:57;99570.94;;;2.19;59.67
38880;BME280;25887;30.194;-97.880;2023-02-01T03:10:09;99553.25;;;2.20;59.58
38880;BME280;25887;30.194;-97.880;2023-02-01T03:12:36;99555.78;;;2.20;59.83
38880;BME280;25887;30.194;-97.880;2023-02-01T03:16:06;99548.13;;;2.19;59.69
38880;BME280;25887;30.194;-97.880;2023-02-01T03:18:16;99565.75;;;2.17;59.84
38880;BME280;25887;30.194;-97.880;2023-02-01T03:20:45;99568.47;;;2.20;59.70
38880;BME280;25887;30.194;-97.880;2023-02-01T03:23:21;99588.69;;;2.19;59.96
38880;BME280;25887;30.194;-97.880;2023-02-01T03:25:49;99570.06;;;2.18;59.54
38880;BME280;25887;30.194;-97.880;2023-02-01T03:28:19;99561.59;;;2.18;59.38
38880;BME280;25887;30.194;-97.880;2023-02-01T03:30:48;99589.47;;;2.18;59.71
38880;BME280;25887;30.194;-97.880;2023-02-01T03:33:20;99596.19;;;2.17;59.77
38880;BME280;25887;30.194;-97.880;2023-02-01T03:41:08;99603.00;;;2.18;59.67
38880;BME280;25887;30.194;-97.880;2023-02-01T03:43:37;99593.75;;;2.19;59.59
38880;BME280;25887;30.194;-97.880;2023-02-01T03:46:08;99599.69;;;2.19;59.39
38880;BME280;25887;30.194;-97.880;2023-02-01T03:48:35;99602.22;;;2.19;59.59
38880;BME280;25887;30.194;-97.880;2023-02-01T03:51:01;99601.25;;;2.17;59.57
38880;BME280;25887;30.194;-97.880;2023-02-01T03:53:31;99584.16;;;2.13;59.57
38880;BME280;25887;30.194;-97.880;2023-02-01T03:56:21;99585.75;;;2.11;59.42
38880;BME280;25887;30.194;-97.880;2023-02-01T03:58:47;99586.44;;;2.09;59.54
38880;BME280;25887;30.194;-97.880;2023-02-01T04:01:27;99600.75;;;2.08;59.63
38880;BME280;25887;30.194;-97.880;2023-02-01T04:03:54;99582.06;;;2.06;59.50
38880;BME280;25887;30.194;-97.880;2023-02-01T04:06:20;99580.34;;;2.05;59.59
38880;BME280;25887;30.194;-97.880;2023-02-01T04:08:46;99583.66;;;2.04;59.83
38880;BME280;25887;30.194;-97.880;2023-02-01T04:11:12;99562.59;;;2.05;59.41
38880;BME280;25887;30.194;-97.880;2023-02-01T04:13:38;99550.78;;;2.06;59.62
38880;BME280;25887;30.194;-97.880;2023-02-01T04:16:04;99547.47;;;2.07;59.53
38880;BME280;25887;30.194;-97.880;2023-02-01T04:18:29;99555.13;;;2.08;59.39
38880;BME280;25887;30.194;-97.880;2023-02-01T04:20:55;99564.34;;;2.06;59.51
38880;BME280;25887;30.194;-97.880;2023-02-01T04:23:43;99565.28;;;2.08;59.67
38880;BME280;25887;30.194;-97.880;2023-02-01T04:26:09;99546.75;;;2.09;59.61
38880;BME280;25887;30.194;-97.880;2023-02-01T04:28:35;99542.47;;;2.08;59.38
38880;BME280;25887;30.194;-97.880;2023-02-01T04:31:01;99555.13;;;2.08;59.31
38880;BME280;25887;30.194;-97.880;2023-02-01T04:33:27;99553.59;;;2.10;59.49
38880;BME280;25887;30.194;-97.880;2023-02-01T04:35:52;99547.53;;;2.08;59.45
38880;BME280;25887;30.194;-97.880;2023-02-01T04:38:19;99548.34;;;2.07;59.42
38880;BME280;25887;30.194;-97.880;2023-02-01T04:40:48;99543.91;;;2.03;59.47
38880;BME280;25887;30.194;-97.880;2023-02-01T04:43:35;99544.84;;;2.05;59.56
38880;BME280;25887;30.194;-97.880;2023-02-01T04:46:01;99550.66;;;2.03;59.79
38880;BME280;25887;30.194;-97.880;2023-02-01T04:48:28;99546.44;;;2.03;59.49
38880;BME280;25887;30.194;-97.880;2023-02-01T04:50:54;99537.78;;;2.00;59.51
38880;BME280;25887;30.194;-97.880;2023-02-01T04:53:19;99547.84;;;1.98;59.50
38880;BME280;25887;30.194;-97.880;2023-02-01T04:55:48;99558.00;;;1.98;59.53
38880;BME280;25887;30.194;-97.880;2023-02-01T04:58:32;99557.19;;;1.99;59.57
38880;BME280;25887;30.194;-97.880;2023-02-01T05:00:58;99547.13;;;2.01;59.51
38880;BME280;25887;30.194;-97.880;2023-02-01T05:03:23;99556.41;;;2.00;59.21
38880;BME280;25887;30.194;-97.880;2023-02-01T05:05:49;99551.41;;;2.02;59.63
38880;BME280;25887;30.194;-97.880;2023-02-01T05:08:17;99545.47;;;2.01;59.51
38880;BME280;25887;30.194;-97.880;2023-02-01T05:10:44;99538.75;;;2.02;59.31
38880;BME280;25887;30.194;-97.880;2023-02-01T05:13:16;99544.69;;;2.02;59.29
38880;BME280;25887;30.194;-97.880;2023-02-01T05:18:47;99559.66;;;1.98;59.23
38880;BME280;25887;30.194;-97.880;2023-02-01T05:21:13;99554.66;;;1.99;59.48
38880;BME280;25887;30.194;-97.880;2023-02-01T05:23:39;99558.00;;;1.98;59.29
38880;BME280;25887;30.194;-97.880;2023-02-01T05:26:23;99552.94;;;1.98;59.22
38880;BME280;25887;30.194;-97.880;2023-02-01T05:28:50;99582.53;;;1.99;59.43
38880;BME280;25887;30.194;-97.880;2023-02-01T05:31:16;99575.72;;;1.98;59.42
38880;BME280;25887;30.194;-97.880;2023-02-01T05:33:42;99570.59;;;1.97;58.88
38880;BME280;25887;30.194;-97.880;2023-02-01T05:36:28;99584.81;;;1.94;59.46
38880;BME280;25887;30.194;-97.880;2023-02-01T05:39:00;99583.88;;;1.92;59.13
38880;BME280;25887;30.194;-97.880;2023-02-01T05:41:26;99577.00;;;1.90;59.35
38880;BME280;25887;30.194;-97.880;2023-02-01T05:43:52;99576.03;;;1.88;59.24
38880;BME280;25887;30.194;-97.880;2023-02-01T05:46:17;99564.94;;;1.86;59.20
38880;BME280;25887;30.194;-97.880;2023-02-01T05:48:44;99566.72;;;1.87;59.28
38880;BME280;25887;30.194;-97.880;2023-02-01T05:51:11;99584.44;;;1.87;59.10
38880;BME280;25887;30.194;-97.880;2023-02-01T05:53:37;99577.59;;;1.86;59.21
38880;BME280;25887;30.194;-97.880;2023-02-01T05:56:03;99582.66;;;1.86;59.16
38880;BME280;25887;30.194;-97.880;2023-02-01T05:58:29;99586.88;;;1.85;59.23
38880;BME280;25887;30.194;-97.880;2023-02-01T06:00:58;99594.47;;;1.85;59.34
38880;BME280;25887;30.194;-97.880;2023-02-01T06:03:24;99589.50;;;1.87;59.29
38880;BME280;25887;30.194;-97.880;2023-02-01T06:05:50;99574.47;;;1.90;59.25
38880;BME280;25887;30.194;-97.880;2023-02-01T06:08:16;99581.25;;;1.91;59.49
38880;BME280;25887;30.194;-97.880;2023-02-01T06:10:42;99570.25;;;1.90;59.30
38880;BME280;25887;30.194;-97.880;2023-02-01T06:13:26;99566.78;;;1.88;59.41
38880;BME280;25887;30.194;-97.880;2023-02-01T06:15:53;99581.13;;;1.88;59.27
38880;BME280;25887;30.194;-97.880;2023-02-01T06:18:19;99582.66;;;1.86;59.24
38880;BME280;25887;30.194;-97.880;2023-02-01T06:20:45;99576.84;;;1.87;59.26
38880;BME280;25887;30.194;-97.880;2023-02-01T06:23:12;99566.72;;;1.87;59.74
38880;BME280;25887;30.194;-97.880;2023-02-01T06:25:37;99555.66;;;1.86;59.29
38880;BME280;25887;30.194;-97.880;2023-02-01T06:28:03;99550.59;;;1.86;59.50
38880;BME280;25887;30.194;-97.880;2023-02-01T06:30:31;99551.50;;;1.87;59.74
38880;BME280;25887;30.194;-97.880;2023-02-01T06:32:57;99539.59;;;1.86;59.50
38880;BME280;25887;30.194;-97.880;2023-02-01T06:35:23;99542.06;;;1.84;59.62
38880;BME280;25887;30.194;-97.880;2023-02-01T06:37:48;99529.31;;;1.83;59.59
38880;BME280;25887;30.194;-97.880;2023-02-01T06:43:17;99516.56;;;1.81;59.60
38880;BME280;25887;30.194;-97.880;2023-02-01T06:45:42;99508.91;;;1.80;60.07
38880;BME280;25887;30.194;-97.880;2023-02-01T06:48:08;99518.22;;;1.81;59.81
38880;BME280;25887;30.194;-97.880;2023-02-01T06:50:52;99526.78;;;1.83;59.62
38880;BME280;25887;30.194;-97.880;2023-02-01T06:53:18;99536.13;;;1.84;59.76
38880;BME280;25887;30.194;-97.880;2023-02-01T06:55:51;99554.72;;;1.84;59.78
38880;BME280;25887;30.194;-97.880;2023-02-01T06:58:18;99575.88;;;1.85;59.80
38880;BME280;25887;30.194;-97.880;2023-02-01T07:00:44;99590.19;;;1.84;59.76
38880;BME280;25887;30.194;-97.880;2023-02-01T07:03:10;99614.75;;;1.85;59.92
38880;BME280;25887;30.194;-97.880;2023-02-01T07:05:48;99614.84;;;1.87;59.80
38880;BME280;25887;30.194;-97.880;2023-02-01T07:08:14;99611.53;;;1.88;59.44
38880;BME280;25887;30.194;-97.880;2023-02-01T07:10:39;99611.53;;;1.88;59.88
38880;BME280;25887;30.194;-97.880;2023-02-01T07:13:06;99622.59;;;1.90;60.18
38880;BME280;25887;30.194;-97.880;2023-02-01T07:15:31;99626.88;;;1.91;60.26
38880;BME280;25887;30.194;-97.880;2023-02-01T07:18:15;99618.47;;;1.92;60.28
38880;BME280;25887;30.194;-97.880;2023-02-01T07:20:41;99623.81;;;1.97;60.12
38880;BME280;25887;30.194;-97.880;2023-02-01T07:23:10;99642.75;;;2.03;60.55
38880;BME280;25887;30.194;-97.880;2023-02-01T07:25:36;99647.09;;;2.06;61.00
38880;BME280;25887;30.194;-97.880;2023-02-01T07:28:02;99650.66;;;2.09;60.63
38880;BME280;25887;30.194;-97.880;2023-02-01T07:30:29;99638.19;;;2.12;60.81
38880;BME280;25887;30.194;-97.880;2023-02-01T07:32:55;99621.38;;;2.14;60.60
38880;BME280;25887;30.194;-97.880;2023-02-01T07:35:24;99601.97;;;2.15;60.81
38880;BME280;25887;30.194;-97.880;2023-02-01T07:37:50;99591.09;;;2.17;60.91
38880;BME280;25887;30.194;-97.880;2023-02-01T07:40:21;99573.53;;;2.20;60.76
38880;BME280;25887;30.194;-97.880;2023-02-01T07:42:56;99551.66;;;2.22;60.95
38880;BME280;25887;30.194;-97.880;2023-02-01T07:45:22;99543.25;;;2.23;61.19
38880;BME280;25887;30.194;-97.880;2023-02-01T07:48:07;99553.47;;;2.25;60.98
38880;BME280;25887;30.194;-97.880;2023-02-01T07:50:43;99563.78;;;2.28;60.87
38880;BME280;25887;30.194;-97.880;2023-02-01T07:53:09;99549.59;;;2.32;61.13
38880;BME280;25887;30.194;-97.880;2023-02-01T07:55:37;99548.91;;;2.34;61.01
38880;BME280;25887;30.194;-97.880;2023-02-01T07:58:02;99560.06;;;2.38;61.04
38880;BME280;25887;30.194;-97.880;2023-02-01T08:00:28;99544.91;;;2.39;60.95
38880;BME280;25887;30.194;-97.880;2023-02-01T08:03:12;99553.38;;;2.40;61.08
38880;BME280;25887;30.194;-97.880;2023-02-01T08:05:38;99542.44;;;2.41;60.95
38880;BME280;25887;30.194;-97.880;2023-02-01T08:08:20;99541.75;;;2.43;60.83
38880;BME280;25887;30.194;-97.880;2023-02-01T08:10:46;99538.34;;;2.43;60.81
38880;BME280;25887;30.194;-97.880;2023-02-01T08:13:21;99532.56;;;2.45;60.92
38880;BME280;25887;30.194;-97.880;2023-02-01T08:15:47;99534.84;;;2.41;60.82
38880;BME280;25887;30.194;-97.880;2023-02-01T08:18:34;99524.56;;;2.38;60.90
38880;BME280;25887;30.194;-97.880;2023-02-01T08:21:10;99528.75;;;2.37;60.83
38880;BME280;25887;30.194;-97.880;2023-02-01T08:23:39;99513.41;;;2.34;60.89
38880;BME280;25887;30.194;-97.880;2023-02-01T08:29:14;99507.47;;;2.34;61.07
38880;BME280;25887;30.194;-97.880;2023-02-01T08:31:40;99512.44;;;2.32;60.90
38880;BME280;25887;30.194;-97.880;2023-02-01T08:34:07;99493.81;;;2.32;61.12
38880;BME280;25887;30.194;-97.880;2023-02-01T08:36:34;99498.03;;;2.31;60.90
38880;BME280;25887;30.194;-97.880;2023-02-01T08:39:00;99502.22;;;2.31;60.88
38880;BME280;25887;30.194;-97.880;2023-02-01T08:41:27;99502.16;;;2.29;61.14
38880;BME280;25887;30.194;-97.880;2023-02-01T08:43:54;99509.69;;;2.28;61.22
38880;BME280;25887;30.194;-97.880;2023-02-01T08:46:20;99510.47;;;2.27;60.97
38880;BME280;25887;30.194;-97.880;2023-02-01T08:48:46;99504.63;;;2.28;61.32
38880;BME280;25887;30.194;-97.880;2023-02-01T08:51:21;99501.09;;;2.26;61.07
38880;BME280;25887;30.194;-97.880;2023-02-01T08:53:47;99505.47;;;2.28;61.23
38880;BME280;25887;30.194;-97.880;2023-02-01T08:56:26;99513.94;;;2.29;61.07
38880;BME280;25887;30.194;-97.880;2023-02-01T08:58:53;99525.91;;;2.31;61.29
38880;BME280;25887;30.194;-97.880;2023-02-01T09:04:08;99523.53;;;2.34;61.23
38880;BME280;25887;30.194;-97.880;2023-02-01T09:06:33;99523.53;;;2.34;61.37
38880;BME280;25887;30.194;-97.880;2023-02-01T09:08:59;99519.34;;;2.35;61.07
38880;BME280;25887;30.194;-97.880;2023-02-01T09:11:25;99530.28;;;2.34;61.36
38880;BME280;25887;30.194;-97.880;2023-02-01T09:13:53;99536.13;;;2.33;61.12
38880;BME280;25887;30.194;-97.880;2023-02-01T09:16:19;99542.06;;;2.33;61.00
38880;BME280;25887;30.194;-97.880;2023-02-01T09:18:45;99520.03;;;2.32;61.20
38880;BME280;25887;30.194;-97.880;2023-02-01T09:21:11;99519.91;;;2.29;61.12
38880;BME280;25887;30.194;-97.880;2023-02-01T09:23:55;99510.56;;;2.28;61.31
38880;BME280;25887;30.194;-97.880;2023-02-01T09:26:21;99510.56;;;2.28;61.31
38880;BME280;25887;30.194;-97.880;2023-02-01T09:28:47;99496.22;;;2.29;61.38
38880;BME280;25887;30.194;-97.880;2023-02-01T09:31:12;99470.84;;;2.29;61.51
38880;BME280;25887;30.194;-97.880;2023-02-01T09:33:38;99458.19;;;2.29;61.65
38880;BME280;25887;30.194;-97.880;2023-02-01T09:36:05;99442.09;;;2.28;61.56
38880;BME280;25887;30.194;-97.880;2023-02-01T09:38:31;99427.75;;;2.29;61.76
38880;BME280;25887;30.194;-97.880;2023-02-01T09:40:57;99436.16;;;2.28;61.72
38880;BME280;25887;30.194;-97.880;2023-02-01T09:48:32;99459.13;;;2.31;61.75
38880;BME280;25887;30.194;-97.880;2023-02-01T09:51:02;99465.28;;;2.36;61.85
38880;BME280;25887;30.194;-97.880;2023-02-01T09:53:35;99457.81;;;2.39;61.96
38880;BME280;25887;30.194;-97.880;2023-02-01T09:56:06;99463.69;;;2.38;62.06
38880;BME280;25887;30.194;-97.880;2023-02-01T09:58:35;99448.47;;;2.38;62.10
38880;BME280;25887;30.194;-97.880;2023-02-01T10:01:03;99435.94;;;2.41;62.17
38880;BME280;25887;30.194;-97.880;2023-02-01T10:03:32;99421.69;;;2.43;62.27
38880;BME280;25887;30.194;-97.880;2023-02-01T10:06:10;99404.81;;;2.43;62.27
38880;BME280;25887;30.194;-97.880;2023-02-01T10:14:36;99390.53;;;2.45;62.44
38880;BME280;25887;30.194;-97.880;2023-02-01T10:25:21;99403.44;;;2.50;62.43
38880;BME280;25887;30.194;-97.880;2023-02-01T10:27:48;99406.75;;;2.49;62.77
38880;BME280;25887;30.194;-97.880;2023-02-01T10:30:19;99409.28;;;2.49;62.41
38880;BME280;25887;30.194;-97.880;2023-02-01T10:32:45;99417.88;;;2.51;62.47
38880;BME280;25887;30.194;-97.880;2023-02-01T10:37:59;99444.31;;;2.56;62.15
38880;BME280;25887;30.194;-97.880;2023-02-01T10:40:27;99458.75;;;2.57;62.29
38880;BME280;25887;30.194;-97.880;2023-02-01T10:43:01;99475.84;;;2.61;62.26
38880;BME280;25887;30.194;-97.880;2023-02-01T10:45:29;99485.38;;;2.65;62.05
38880;BME280;25887;30.194;-97.880;2023-02-01T10:47:57;99512.47;;;2.66;62.07
38880;BME280;25887;30.194;-97.880;2023-02-01T10:53:21;99518.56;;;2.70;61.99
38880;BME280;25887;30.194;-97.880;2023-02-01T10:55:51;99528.75;;;2.71;62.22
38880;BME280;25887;30.194;-97.880;2023-02-01T10:58:18;99534.81;;;2.73;61.96
38880;BME280;25887;30.194;-97.880;2023-02-01T11:00:48;99530.75;;;2.77;61.71
38880;BME280;25887;30.194;-97.880;2023-02-01T11:03:20;99541.94;;;2.81;62.20
38880;BME280;25887;30.194;-97.880;2023-02-01T11:05:46;99531.91;;;2.84;61.89
38880;BME280;25887;30.194;-97.880;2023-02-01T11:08:14;99534.59;;;2.87;62.25
38880;BME280;25887;30.194;-97.880;2023-02-01T11:10:42;99512.63;;;2.87;62.05
38880;BME280;25887;30.194;-97.880;2023-02-01T11:13:15;99472.88;;;2.88;62.18
38880;BME280;25887;30.194;-97.880;2023-02-01T11:15:54;99471.16;;;2.87;61.67
38880;BME280;25887;30.194;-97.880;2023-02-01T11:18:24;99480.59;;;2.89;61.89
38880;BME280;25887;30.194;-97.880;2023-02-01T11:20:52;99490.03;;;2.92;61.99
38880;BME280;25887;30.194;-97.880;2023-02-01T11:23:21;99480.88;;;2.95;61.97
38880;BME280;25887;30.194;-97.880;2023-02-01T11:25:55;99479.28;;;2.97;61.93
38880;BME280;25887;30.194;-97.880;2023-02-01T11:28:26;99490.31;;;2.98;62.02
38880;BME280;25887;30.194;-97.880;2023-02-01T11:30:55;99494.66;;;3.00;62.05
38880;BME280;25887;30.194;-97.880;2023-02-01T11:33:25;99497.25;;;3.02;61.83
38880;BME280;25887;30.194;-97.880;2023-02-01T11:35:55;99506.63;;;3.03;62.04
38880;BME280;25887;30.194;-97.880;2023-02-01T11:38:26;99520.97;;;3.02;61.98
38880;BME280;25887;30.194;-97.880;2023-02-01T11:40:54;99530.44;;;3.05;61.54
38880;BME280;25887;30.194;-97.880;2023-02-01T11:43:27;99533.16;;;3.10;61.65
38880;BME280;25887;30.194;-97.880;2023-02-01T11:45:54;99527.28;;;3.11;61.37
38880;BME280;25887;30.194;-97.880;2023-02-01T11:48:20;99518.91;;;3.12;61.20
38880;BME280;25887;30.194;-97.880;2023-02-01T11:50:57;99508.00;;;3.14;61.96
38880;BME280;25887;30.194;-97.880;2023-02-01T11:56:05;99501.34;;;3.16;61.92
38880;BME280;25887;30.194;-97.880;2023-02-01T12:01:48;99504.81;;;3.18;61.50
38880;BME280;25887;30.194;-97.880;2023-02-01T12:04:36;99493.06;;;3.20;61.42
38880;BME280;25887;30.194;-97.880;2023-02-01T12:07:08;99482.81;;;3.19;61.65
38880;BME280;25887;30.194;-97.880;2023-02-01T12:15:12;99487.84;;;3.17;61.08
38880;BME280;25887;30.194;-97.880;2023-02-01T12:20:47;99508.94;;;3.16;61.20
38880;BME280;25887;30.194;-97.880;2023-02-01T12:33:58;99506.22;;;3.12;61.50
38880;BME280;25887;30.194;-97.880;2023-02-01T12:37:13;99496.06;;;3.12;61.39
38880;BME280;25887;30.194;-97.880;2023-02-01T12:39:31;99492.56;;;3.10;61.46
38880;BME280;25887;30.194;-97.880;2023-02-01T12:42:02;99505.31;;;3.11;61.24
38880;BME280;25887;30.194;-97.880;2023-02-01T12:47:21;99474.22;;;3.15;61.25
38880;BME280;25887;30.194;-97.880;2023-02-01T12:49:50;99470.06;;;3.17;61.36
38880;BME280;25887;30.194;-97.880;2023-02-01T12:52:30;99463.25;;;3.16;61.26
38880;BME280;25887;30.194;-97.880;2023-02-01T12:55:06;99455.50;;;3.13;61.32
38880;BME280;25887;30.194;-97.880;2023-02-01T12:57:35;99455.50;;;3.13;61.88
38880;BME280;25887;30.194;-97.880;2023-02-01T13:05:30;99466.59;;;3.15;61.89
38880;BME280;25887;30.194;-97.880;2023-02-01T13:10:33;99522.56;;;3.18;61.67
38880;BME280;25887;30.194;-97.880;2023-02-01T13:13:21;99522.69;;;3.20;61.69
38880;BME280;25887;30.194;-97.880;2023-02-01T13:18:20;99535.38;;;3.20;61.54
38880;BME280;25887;30.194;-97.880;2023-02-01T13:20:55;99522.81;;;3.23;61.48
